createdAt,value
2022-11-06T00:02:39.074Z,9.80
2022-11-06T00:06:49.573Z,9.50
2022-11-06T00:10:50.723Z,9.60
2022-11-06T00:14:52.004Z,9.00
2022-11-06T00:18:54.201Z,9.30
2022-11-06T00:22:55.395Z,9.60
2022-11-06T00:26:56.811Z,9.60
2022-11-06T00:31:06.559Z,9.50
2022-11-06T00:35:07.873Z,9.80
2022-11-06T00:39:11.051Z,9.20
2022-11-06T00:43:12.399Z,8.90
2022-11-06T00:47:13.576Z,9.00
2022-11-06T00:51:18.152Z,9.00
2022-11-06T00:55:19.257Z,9.00
2022-11-06T00:59:20.461Z,8.30
2022-11-06T01:03:21.717Z,9.10
2022-11-06T01:07:23.668Z,9.00
2022-11-06T01:11:52.416Z,9.00
2022-11-06T01:15:37.202Z,8.90
2022-11-06T01:19:38.350Z,9.10
2022-11-06T01:23:40.010Z,8.70
2022-11-06T01:27:41.186Z,8.10
2022-11-06T01:31:42.535Z,8.00
2022-11-06T01:35:45.764Z,7.90
2022-11-06T01:39:48.827Z,8.00
2022-11-06T01:43:56.688Z,8.10
2022-11-06T01:47:57.968Z,8.10
2022-11-06T01:52:02.966Z,9.20
2022-11-06T01:56:07.511Z,9.30
2022-11-06T02:00:09.885Z,9.20
2022-11-06T02:04:17.635Z,8.20
2022-11-06T02:08:21.383Z,8.30
2022-11-06T02:12:29.245Z,8.00
2022-11-06T02:16:38.364Z,8.50
2022-11-06T02:21:07.271Z,7.90
2022-11-06T02:25:17.962Z,8.00
2022-11-06T02:29:34.872Z,7.90
2022-11-06T02:33:40.032Z,7.90
2022-11-06T02:37:43.808Z,8.50
2022-11-06T02:41:47.256Z,8.10
2022-11-06T02:45:58.432Z,7.90
2022-11-06T02:50:06.571Z,7.60
2022-11-06T02:54:09.827Z,8.00
2022-11-06T02:58:15.168Z,8.40
2022-11-06T03:02:20.405Z,8.10
2022-11-06T03:06:42.169Z,8.20
2022-11-06T03:10:47.018Z,8.30
2022-11-06T03:15:07.517Z,8.20
2022-11-06T03:19:15.260Z,8.00
2022-11-06T03:23:38.306Z,8.30
2022-11-06T03:27:58.557Z,8.30
2022-11-06T03:32:09.618Z,8.20
2022-11-06T03:36:20.600Z,8.40
2022-11-06T03:40:25.411Z,8.30
2022-11-06T03:44:29.938Z,8.20
2022-11-06T03:48:49.832Z,8.50
2022-11-06T03:53:00.921Z,8.70
2022-11-06T03:57:11.517Z,9.30
2022-11-06T04:01:15.704Z,8.70
2022-11-06T04:05:23.281Z,8.60
2022-11-06T04:09:46.625Z,8.80
2022-11-06T04:13:58.398Z,9.10
2022-11-06T04:17:59.378Z,8.80
2022-11-06T04:22:13.021Z,8.40
2022-11-06T04:26:36.316Z,8.80
2022-11-06T04:30:41.255Z,8.30
2022-11-06T04:34:58.048Z,8.30
2022-11-06T04:39:05.784Z,7.90
2022-11-06T04:43:13.748Z,8.40
2022-11-06T04:47:18.779Z,8.70
2022-11-06T04:51:24.081Z,8.60
2022-11-06T04:55:25.719Z,8.30
2022-11-06T04:59:27.539Z,8.70
2022-11-06T05:03:28.550Z,8.40
2022-11-06T05:07:29.755Z,9.00
2022-11-06T05:11:30.805Z,9.10
2022-11-06T05:15:31.809Z,9.30
2022-11-06T05:19:32.994Z,8.50
2022-11-06T05:23:34.176Z,8.60
2022-11-06T05:27:35.213Z,8.40
2022-11-06T05:31:36.508Z,8.80
2022-11-06T05:35:37.667Z,7.80
2022-11-06T05:39:41.786Z,8.40
2022-11-06T05:43:41.870Z,8.70
2022-11-06T05:47:43.191Z,8.20
2022-11-06T05:51:44.383Z,8.20
2022-11-06T05:55:46.806Z,8.10
2022-11-06T05:59:47.938Z,8.20
2022-11-06T06:03:48.977Z,7.70
2022-11-06T06:07:49.968Z,7.60
2022-11-06T06:11:52.070Z,7.20
2022-11-06T06:15:53.428Z,7.60
2022-11-06T06:19:54.580Z,7.40
2022-11-06T06:23:55.735Z,7.60
2022-11-06T06:27:57.464Z,7.90
2022-11-06T06:31:58.593Z,7.20
2022-11-06T06:36:05.483Z,7.70
2022-11-06T06:40:07.598Z,7.20
2022-11-06T06:44:08.613Z,8.10
2022-11-06T06:48:12.192Z,8.80
2022-11-06T06:52:13.667Z,8.10
2022-11-06T06:56:15.387Z,6.80
2022-11-06T07:00:16.661Z,7.20
2022-11-06T07:04:17.926Z,7.90
2022-11-06T07:08:19.126Z,8.30
2022-11-06T07:12:20.411Z,8.80
2022-11-06T07:16:21.926Z,8.70
2022-11-06T07:20:22.959Z,9.20
2022-11-06T07:24:24.148Z,9.20
2022-11-06T07:28:25.336Z,8.40
2022-11-06T07:32:26.928Z,8.60
2022-11-06T07:36:28.101Z,7.60
2022-11-06T07:40:29.367Z,7.40
2022-11-06T07:44:30.593Z,8.30
2022-11-06T07:48:32.587Z,7.70
2022-11-06T07:52:33.872Z,8.50
2022-11-06T07:56:34.920Z,8.30
2022-11-06T08:00:36.820Z,8.70
2022-11-06T08:04:39.188Z,8.20
2022-11-06T08:08:40.386Z,8.70
2022-11-06T08:12:41.563Z,8.10
2022-11-06T08:16:42.656Z,8.40
2022-11-06T08:20:43.789Z,8.40
2022-11-06T08:24:44.931Z,8.80
2022-11-06T08:28:46.080Z,8.60
2022-11-06T08:32:47.214Z,8.80
2022-11-06T08:36:51.635Z,8.90
2022-11-06T08:40:53.989Z,8.90
2022-11-06T08:44:55.598Z,9.00
2022-11-06T08:48:56.842Z,9.10
2022-11-06T08:53:05.899Z,8.40
2022-11-06T08:57:07.376Z,8.60
2022-11-06T09:01:09.218Z,8.90
2022-11-06T09:05:10.800Z,9.00
2022-11-06T09:09:12.335Z,8.80
2022-11-06T09:13:13.824Z,8.40
2022-11-06T09:17:16.119Z,7.90
2022-11-06T09:21:17.236Z,8.30
2022-11-06T09:25:19.620Z,7.90
2022-11-06T09:29:21.118Z,8.20
2022-11-06T09:33:23.495Z,8.00
2022-11-06T09:37:24.947Z,8.90
2022-11-06T09:41:42.279Z,9.10
2022-11-06T09:45:45.386Z,9.20
2022-11-06T09:49:53.246Z,9.50
2022-11-06T09:53:58.055Z,9.30
2022-11-06T09:58:15.564Z,9.70
2022-11-06T10:02:45.144Z,10.30
2022-11-06T10:06:46.425Z,10.60
2022-11-06T10:11:17.679Z,10.30
2022-11-06T10:15:31.830Z,10.70
2022-11-06T10:19:42.241Z,10.20
2022-11-06T10:23:49.830Z,10.40
2022-11-06T10:27:57.889Z,10.20
2022-11-06T10:32:20.764Z,10.90
2022-11-06T10:36:40.996Z,10.60
2022-11-06T10:40:44.148Z,11.40
2022-11-06T10:44:51.898Z,11.30
2022-11-06T10:48:56.887Z,10.80
2022-11-06T10:53:02.066Z,10.90
2022-11-06T10:57:06.919Z,11.60
2022-11-06T11:01:11.870Z,11.20
2022-11-06T11:05:16.021Z,11.30
2022-11-06T11:09:32.422Z,10.90
2022-11-06T11:13:34.299Z,11.80
2022-11-06T11:17:35.567Z,11.30
2022-11-06T11:21:36.739Z,11.40
2022-11-06T11:25:38.514Z,12.00
2022-11-06T11:29:47.413Z,11.40
2022-11-06T11:33:52.166Z,11.40
2022-11-06T11:38:08.896Z,11.90
2022-11-06T11:42:30.926Z,11.70
2022-11-06T11:46:33.233Z,11.80
2022-11-06T11:50:34.508Z,12.10
2022-11-06T11:54:36.710Z,12.30
2022-11-06T11:58:38.168Z,12.30
2022-11-06T12:02:48.991Z,12.50
2022-11-06T12:06:56.870Z,13.00
2022-11-06T12:11:05.945Z,13.10
2022-11-06T12:15:23.287Z,12.50
2022-11-06T12:19:27.899Z,12.60
2022-11-06T12:23:44.999Z,12.20
2022-11-06T12:27:49.916Z,12.10
2022-11-06T12:32:04.086Z,11.50
2022-11-06T12:36:08.059Z,11.90
2022-11-06T12:40:25.045Z,12.00
2022-11-06T12:44:25.130Z,12.40
2022-11-06T12:48:44.867Z,12.80
2022-11-06T12:53:06.104Z,12.40
2022-11-06T12:57:28.587Z,13.20
2022-11-06T13:01:53.003Z,13.10
2022-11-06T13:06:13.205Z,12.30
2022-11-06T13:10:16.905Z,12.50
2022-11-06T13:14:27.638Z,13.10
2022-11-06T13:18:32.648Z,13.30
2022-11-06T13:22:43.459Z,13.60
2022-11-06T13:26:51.221Z,13.90
2022-11-06T13:30:53.525Z,13.50
2022-11-06T13:34:55.795Z,13.50
2022-11-06T13:39:06.448Z,13.90
2022-11-06T13:43:14.486Z,13.30
2022-11-06T13:47:27.669Z,14.30
2022-11-06T13:51:52.235Z,14.00
2022-11-06T13:56:15.113Z,13.60
2022-11-06T14:00:25.203Z,13.80
2022-11-06T14:04:53.286Z,12.80
2022-11-06T14:09:16.799Z,12.30
2022-11-06T14:13:21.467Z,13.00
2022-11-06T14:22:00.245Z,12.60
2022-11-06T14:26:10.230Z,12.30
2022-11-06T14:31:05.703Z,12.60
2022-11-06T14:34:40.133Z,12.30
2022-11-06T14:38:42.208Z,12.10
2022-11-06T14:42:46.385Z,12.50
2022-11-06T14:46:53.407Z,12.40
2022-11-06T14:50:56.038Z,12.30
2022-11-06T14:55:05.444Z,12.30
2022-11-06T14:59:09.832Z,12.00
2022-11-06T15:03:23.603Z,11.80
2022-11-06T15:11:49.587Z,12.10
2022-11-06T15:15:54.283Z,12.50
2022-11-06T15:19:59.254Z,12.30
2022-11-06T15:24:07.167Z,11.90
2022-11-06T15:28:14.560Z,12.10
2022-11-06T15:32:25.017Z,11.60
2022-11-06T15:36:28.292Z,11.40
2022-11-06T15:40:35.684Z,11.80
2022-11-06T15:44:41.460Z,12.40
2022-11-06T15:48:43.296Z,12.40
2022-11-06T15:52:45.638Z,12.40
2022-11-06T15:56:48.478Z,12.50
2022-11-06T16:00:49.565Z,12.00
2022-11-06T16:04:51.320Z,12.30
2022-11-06T16:08:52.575Z,13.00
2022-11-06T16:12:54.870Z,12.90
2022-11-06T16:16:56.848Z,12.70
2022-11-06T16:21:16.590Z,12.90
2022-11-06T16:25:19.658Z,13.10
2022-11-06T16:29:29.908Z,13.10
2022-11-06T16:33:30.972Z,13.10
2022-11-06T16:37:35.209Z,12.50
2022-11-06T16:41:58.516Z,12.80
2022-11-06T16:46:07.730Z,12.60
2022-11-06T16:50:44.577Z,12.90
2022-11-06T16:54:54.871Z,12.60
2022-11-06T16:59:02.721Z,12.00
2022-11-06T17:03:07.678Z,12.10
2022-11-06T17:07:12.541Z,12.70
2022-11-06T17:11:18.771Z,12.10
2022-11-06T17:15:19.955Z,12.80
2022-11-06T17:19:22.348Z,12.80
2022-11-06T17:23:24.793Z,12.50
2022-11-06T17:27:25.948Z,12.80
2022-11-06T17:31:26.934Z,12.30
2022-11-06T17:35:27.996Z,11.10
2022-11-06T17:39:30.189Z,11.00
2022-11-06T17:43:31.202Z,10.50
2022-11-06T17:47:32.358Z,11.30
2022-11-06T17:51:52.166Z,11.20
2022-11-06T17:55:53.477Z,10.70
2022-11-06T17:59:54.462Z,11.10
2022-11-06T18:03:55.296Z,11.80
2022-11-06T18:07:56.300Z,11.50
2022-11-06T18:11:57.822Z,11.90
2022-11-06T18:15:58.931Z,12.00
2022-11-06T18:19:59.919Z,11.00
2022-11-06T18:24:01.591Z,10.40
2022-11-06T18:28:03.931Z,11.30
2022-11-06T18:32:05.573Z,10.20
2022-11-06T18:36:08.826Z,11.20
2022-11-06T18:40:11.131Z,11.70
2022-11-06T18:44:12.100Z,12.00
2022-11-06T18:48:16.962Z,12.20
2022-11-06T18:52:32.556Z,11.90
2022-11-06T18:56:18.813Z,11.00
2022-11-06T19:00:20.556Z,11.40
2022-11-06T19:04:21.840Z,11.30
2022-11-06T19:08:22.832Z,10.60
2022-11-06T19:12:24.086Z,10.10
2022-11-06T19:16:25.064Z,10.50
2022-11-06T19:24:35.318Z,10.30
2022-11-06T19:28:37.359Z,10.70
2022-11-06T19:32:38.721Z,10.20
2022-11-06T19:36:40.160Z,9.90
2022-11-06T19:40:41.270Z,9.80
2022-11-06T19:44:42.443Z,9.70
2022-11-06T19:48:43.867Z,9.90
2022-11-06T19:52:53.263Z,9.40
2022-11-06T19:57:28.466Z,9.10
2022-11-06T20:00:54.370Z,9.20
2022-11-06T20:04:55.607Z,9.40
2022-11-06T20:08:56.832Z,9.10
2022-11-06T20:12:58.736Z,9.10
2022-11-06T20:17:00.311Z,9.30
2022-11-06T20:21:06.710Z,9.40
2022-11-06T20:25:08.544Z,9.30
2022-11-06T20:29:09.844Z,9.60
2022-11-06T20:33:11.474Z,9.40
2022-11-06T20:37:13.046Z,9.20
2022-11-06T20:41:15.646Z,8.80
2022-11-06T20:45:16.942Z,9.20
2022-11-06T20:49:18.192Z,9.60
2022-11-06T20:53:19.601Z,9.60
2022-11-06T20:57:21.172Z,10.10
2022-11-06T21:01:26.500Z,10.10
2022-11-06T21:05:28.041Z,10.60
2022-11-06T21:09:30.724Z,10.40
2022-11-06T21:13:33.552Z,10.60
2022-11-06T21:17:34.887Z,10.50
2022-11-06T21:21:39.119Z,10.40
2022-11-06T21:25:45.015Z,10.70
2022-11-06T21:29:43.207Z,10.10
2022-11-06T21:33:46.988Z,11.00
2022-11-06T21:37:48.192Z,10.00
2022-11-06T21:41:49.467Z,10.50
2022-11-06T21:45:50.786Z,10.60
2022-11-06T21:49:54.713Z,10.50
2022-11-06T21:54:14.729Z,10.20
2022-11-06T21:58:17.156Z,10.60
2022-11-06T22:02:18.753Z,10.80
2022-11-06T22:06:24.140Z,10.60
2022-11-06T22:10:26.691Z,10.60
2022-11-06T22:14:27.863Z,11.00
2022-11-06T22:18:29.028Z,10.40
2022-11-06T22:22:30.320Z,11.00
2022-11-06T22:26:32.971Z,10.60
2022-11-06T22:30:34.131Z,10.90
2022-11-06T22:34:35.323Z,10.80
2022-11-06T22:38:37.534Z,11.00
2022-11-06T22:42:38.687Z,11.20
2022-11-06T22:46:41.993Z,10.40
2022-11-06T22:50:44.273Z,10.60
2022-11-06T22:54:45.527Z,10.20
2022-11-06T22:58:47.226Z,11.10
2022-11-06T23:02:49.420Z,10.80
2022-11-06T23:06:58.988Z,10.70
2022-11-06T23:11:07.419Z,10.60
2022-11-06T23:19:39.310Z,10.70
2022-11-06T23:23:51.054Z,10.70
2022-11-06T23:27:51.978Z,10.40
2022-11-06T23:32:03.767Z,10.80
2022-11-06T23:36:11.342Z,10.20
2022-11-06T23:40:12.578Z,10.60
2022-11-06T23:44:33.458Z,10.70
2022-11-06T23:48:34.852Z,10.50
2022-11-06T23:52:36.108Z,10.90
2022-11-06T23:56:37.276Z,10.50
